National Weather Service Raw Text Product

Displaying AFOS PIL: TAFFOD Received: 2018-06-14 11:27 UTC


401 
FTUS43 KDMX 141127
TAFFOD
TAF
KFOD 141127Z 1412/1512 14009KT P6SM -SHRA SCT030 BKN050
      TEMPO 1412/1414 3SM TSRA BR BKN030CB
     FM141400 15012KT P6SM VCSH BKN100
     FM141700 15013G19KT P6SM FEW100 BKN200
     FM150100 15012KT P6SM FEW250
     FM150400 15010KT P6SM FEW250 WS016/20045KT=